Time;durP1;ratioP1;P1;durP2;ratioP2;P2;SDS_P1;SDS_P2;PMS_P1;PMS_P2;Temp;Humidity;BMP_temperature;BMP_pressure;BME280_temperature;BME280_humidity;BME280_pressure;Samples;Min_cycle;Max_cycle;Signal;HPM_P1;HPM_P2
2023/07/15 00:01:18;;;;;;;10.05;1.80;;;16.40;99.90;;;;;;5047133;28;20063;-60
2023/07/15 00:03:46;;;;;;;11.20;2.85;;;16.50;99.90;;;;;;5042725;28;20048;-60
2023/07/15 00:06:14;;;;;;;12.88;2.13;;;16.40;99.90;;;;;;5037670;28;20475;-59
2023/07/15 00:08:41;;;;;;;8.15;2.05;;;16.40;99.90;;;;;;5041373;28;20051;-60
2023/07/15 00:11:29;;;;;;;16.38;2.63;;;16.40;99.90;;;;;;5040003;28;20058;-59
2023/07/15 00:13:56;;;;;;;12.65;1.80;;;16.40;99.90;;;;;;5027529;28;20049;-59
2023/07/15 00:16:24;;;;;;;9.25;3.00;;;16.30;99.90;;;;;;5040761;28;20045;-60
2023/07/15 00:18:51;;;;;;;16.23;2.17;;;16.30;99.90;;;;;;5039790;28;20463;-62
2023/07/15 00:21:30;;;;;;;12.57;1.67;;;16.20;99.90;;;;;;5016544;28;20038;-60
2023/07/15 00:23:57;;;;;;;13.20;2.00;;;16.30;99.90;;;;;;5040675;28;20052;-59
2023/07/15 00:26:26;;;;;;;11.43;2.03;;;16.30;99.90;;;;;;5040392;28;20052;-60
2023/07/15 00:28:53;;;;;;;16.33;2.20;;;16.30;99.90;;;;;;5039305;28;20045;-60
2023/07/15 00:31:20;;;;;;;12.57;2.78;;;16.30;99.90;;;;;;5042335;28;20053;-59
2023/07/15 00:33:48;;;;;;;7.47;1.42;;;16.30;99.90;;;;;;5038509;28;20129;-60
2023/07/15 00:36:15;;;;;;;9.85;2.00;;;16.20;99.90;;;;;;5040117;28;20049;-60
2023/07/15 00:38:42;;;;;;;8.13;2.55;;;16.20;99.90;;;;;;5044133;28;20045;-60
2023/07/15 00:41:15;;;;;;;10.00;2.53;;;16.20;99.90;;;;;;5042242;28;20500;-59
2023/07/15 00:44:05;;;;;;;21.08;2.45;;;16.20;99.90;;;;;;5034486;28;20068;-59
2023/07/15 00:46:43;;;;;;;11.15;2.22;;;16.20;99.90;;;;;;5039574;28;20056;-59
2023/07/15 00:49:18;;;;;;;14.60;2.25;;;16.20;99.90;;;;;;5043223;28;20049;-60
2023/07/15 00:51:47;;;;;;;14.00;2.20;;;16.20;99.90;;;;;;5024781;28;20038;-60
2023/07/15 00:54:14;;;;;;;9.57;2.42;;;16.10;99.90;;;;;;5039506;28;20111;-60
2023/07/15 00:56:42;;;;;;;13.70;2.75;;;16.20;99.90;;;;;;5049901;28;20037;-60
2023/07/15 00:59:09;;;;;;;9.98;2.13;;;16.20;99.90;;;;;;5023147;28;20103;-60
2023/07/15 01:01:36;;;;;;;18.45;2.33;;;16.20;99.90;;;;;;5003448;28;20046;-59
2023/07/15 01:04:04;;;;;;;12.48;3.08;;;16.20;99.90;;;;;;4994156;28;20081;-59
2023/07/15 01:06:33;;;;;;;11.07;2.65;;;16.30;99.90;;;;;;4997655;28;20046;-60
2023/07/15 01:09:01;;;;;;;10.27;3.10;;;16.30;99.90;;;;;;5007074;28;20497;-59
2023/07/15 01:11:29;;;;;;;16.58;3.00;;;16.30;99.90;;;;;;5003360;28;20046;-59
2023/07/15 01:13:56;;;;;;;12.38;3.30;;;16.40;99.90;;;;;;5007795;28;20057;-59
2023/07/15 01:16:23;;;;;;;12.15;2.17;;;16.40;99.90;;;;;;5003093;28;20037;-59
2023/07/15 01:18:50;;;;;;;17.52;3.17;;;16.40;99.90;;;;;;4995424;28;20056;-58
2023/07/15 01:21:19;;;;;;;17.40;3.20;;;16.40;99.90;;;;;;5001258;28;20042;-59
2023/07/15 01:23:46;;;;;;;14.98;3.25;;;16.40;99.90;;;;;;5008457;28;20065;-59
2023/07/15 01:26:13;;;;;;;21.30;3.42;;;16.50;99.90;;;;;;5001107;28;20061;-59
2023/07/15 01:28:40;;;;;;;13.80;2.70;;;16.40;99.90;;;;;;4998178;28;20046;-59
2023/07/15 01:31:07;;;;;;;14.90;2.80;;;16.40;99.90;;;;;;5000479;28;20037;-59
2023/07/15 01:33:34;;;;;;;13.63;2.45;;;16.40;99.90;;;;;;5000523;28;20052;-59
2023/07/15 01:36:04;;;;;;;12.65;2.60;;;16.40;99.90;;;;;;5000716;28;20051;-59
2023/07/15 01:38:31;;;;;;;20.02;3.40;;;16.40;99.90;;;;;;5000488;28;20061;-59
2023/07/15 01:40:58;;;;;;;16.00;2.67;;;16.40;99.90;;;;;;4996562;28;20057;-60
2023/07/15 01:43:25;;;;;;;21.80;2.72;;;16.40;99.90;;;;;;5003544;28;20061;-61
2023/07/15 01:45:52;;;;;;;19.08;3.33;;;16.40;99.90;;;;;;4996719;28;20050;-60
2023/07/15 01:48:19;;;;;;;13.90;4.30;;;16.40;99.90;;;;;;4997899;28;20104;-60
2023/07/15 01:50:48;;;;;;;12.98;2.83;;;16.40;99.90;;;;;;5005316;28;20045;-60
2023/07/15 01:53:14;;;;;;;14.15;2.63;;;16.40;99.90;;;;;;5002305;28;20637;-60
2023/07/15 01:55:41;;;;;;;21.83;3.08;;;16.40;99.90;;;;;;5003897;28;20219;-60
2023/07/15 01:58:08;;;;;;;15.70;2.90;;;16.40;99.90;;;;;;5018684;28;20064;-59
2023/07/15 02:00:35;;;;;;;19.92;3.75;;;16.40;99.90;;;;;;5032072;28;20054;-59
2023/07/15 02:03:02;;;;;;;16.15;2.97;;;16.40;99.90;;;;;;5036881;28;20132;-60
2023/07/15 02:05:29;;;;;;;15.05;3.15;;;16.40;99.90;;;;;;5045481;28;20095;-59
2023/07/15 02:07:56;;;;;;;20.85;3.47;;;16.40;99.90;;;;;;5040773;28;20052;-60
2023/07/15 02:10:23;;;;;;;18.98;3.85;;;16.40;99.90;;;;;;5035171;28;20057;-59
2023/07/15 02:12:50;;;;;;;18.02;3.25;;;16.40;99.90;;;;;;5037923;28;20049;-60
2023/07/15 02:15:17;;;;;;;21.13;3.50;;;16.40;99.90;;;;;;5042422;28;20427;-59
2023/07/15 02:17:45;;;;;;;21.50;4.05;;;16.40;99.90;;;;;;5038137;28;20041;-60
2023/07/15 02:20:12;;;;;;;15.65;3.50;;;16.40;99.90;;;;;;5037850;28;20049;-64
2023/07/15 02:22:40;;;;;;;17.48;3.67;;;16.40;99.90;;;;;;5020710;28;20063;-60
2023/07/15 02:25:08;;;;;;;18.13;5.05;;;16.40;99.90;;;;;;5049078;28;20407;-61
2023/07/15 02:27:35;;;;;;;15.98;3.35;;;16.40;99.90;;;;;;5040334;28;20044;-61
2023/07/15 02:30:02;;;;;;;9.90;2.28;;;16.40;99.90;;;;;;5040116;28;20049;-59
2023/07/15 02:32:40;;;;;;;12.70;3.05;;;16.50;99.90;;;;;;5034965;28;20041;-60
2023/07/15 02:35:11;;;;;;;17.88;4.50;;;16.50;99.90;;;;;;5040140;28;20041;-59
2023/07/15 02:37:42;;;;;;;16.85;3.30;;;16.50;99.90;;;;;;5034875;28;20055;-61
2023/07/15 02:40:10;;;;;;;16.08;2.60;;;16.50;99.90;;;;;;5037367;28;20665;-59
2023/07/15 02:42:39;;;;;;;22.10;3.22;;;16.50;99.90;;;;;;5042572;28;20049;-59
2023/07/15 02:45:08;;;;;;;19.35;3.67;;;16.50;99.90;;;;;;5041044;28;20096;-59
2023/07/15 02:47:36;;;;;;;16.75;3.17;;;16.50;99.90;;;;;;5032021;28;20073;-60
2023/07/15 02:50:06;;;;;;;20.35;3.90;;;16.50;99.90;;;;;;5035883;28;20435;-60
2023/07/15 02:52:33;;;;;;;14.93;3.40;;;16.50;99.90;;;;;;5045100;28;20467;-60
2023/07/15 02:55:01;;;;;;;13.77;3.13;;;16.50;99.90;;;;;;5038136;28;20537;-60
2023/07/15 02:57:28;;;;;;;18.60;3.03;;;16.60;99.90;;;;;;5041733;28;20067;-60
2023/07/15 02:59:55;;;;;;;17.38;3.28;;;16.60;99.90;;;;;;5035984;28;20409;-60
2023/07/15 03:02:23;;;;;;;21.67;4.18;;;16.60;99.90;;;;;;5044150;28;20045;-60
2023/07/15 03:04:50;;;;;;;20.63;4.25;;;16.60;99.90;;;;;;5030615;28;20041;-60
2023/07/15 03:07:17;;;;;;;17.88;3.50;;;16.60;99.90;;;;;;5034317;28;20049;-60
2023/07/15 03:09:44;;;;;;;16.95;2.95;;;16.60;99.90;;;;;;5037025;28;20111;-60
2023/07/15 03:12:11;;;;;;;17.17;4.53;;;16.60;99.90;;;;;;5041707;28;20044;-60
2023/07/15 03:14:39;;;;;;;22.60;5.82;;;16.50;99.90;;;;;;5037038;28;20042;-60
2023/07/15 03:17:05;;;;;;;12.43;3.08;;;16.60;99.90;;;;;;5037441;28;20100;-60
2023/07/15 03:19:32;;;;;;;18.42;3.92;;;16.60;99.90;;;;;;5037674;28;20467;-60
2023/07/15 03:21:59;;;;;;;16.25;3.38;;;16.60;99.90;;;;;;5037083;28;20049;-60
2023/07/15 03:24:26;;;;;;;12.55;3.05;;;16.60;99.90;;;;;;5039729;28;21274;-60
2023/07/15 03:26:53;;;;;;;15.57;3.03;;;16.60;99.90;;;;;;5041873;28;20049;-60
2023/07/15 03:29:20;;;;;;;16.58;3.13;;;16.60;99.90;;;;;;5034017;28;20443;-60
2023/07/15 03:31:47;;;;;;;17.05;3.20;;;16.60;99.90;;;;;;5035381;28;20045;-60
2023/07/15 03:34:14;;;;;;;19.80;3.97;;;16.70;99.90;;;;;;5042924;28;20386;-60
2023/07/15 03:36:41;;;;;;;15.57;3.60;;;16.70;99.90;;;;;;5040248;28;20045;-60
2023/07/15 03:39:08;;;;;;;17.98;3.08;;;16.70;99.90;;;;;;5030633;28;20428;-61
2023/07/15 03:41:35;;;;;;;17.40;2.88;;;16.70;99.90;;;;;;5044052;28;20083;-60
2023/07/15 03:44:03;;;;;;;16.35;4.05;;;16.70;99.90;;;;;;5043709;28;20056;-59
2023/07/15 03:46:30;;;;;;;12.38;2.72;;;16.70;99.90;;;;;;5027612;28;20045;-60
2023/07/15 03:48:57;;;;;;;16.67;3.10;;;16.70;99.90;;;;;;5033190;28;20523;-59
2023/07/15 03:51:24;;;;;;;16.02;4.00;;;16.70;99.90;;;;;;5036816;28;20184;-60
2023/07/15 03:53:51;;;;;;;11.10;2.10;;;16.70;99.90;;;;;;5041871;28;20049;-59
2023/07/15 03:56:17;;;;;;;17.92;3.88;;;16.60;99.90;;;;;;5038218;28;20060;-59
2023/07/15 03:58:44;;;;;;;13.65;3.15;;;16.60;99.90;;;;;;5034581;28;20065;-60
2023/07/15 04:01:11;;;;;;;18.02;3.22;;;16.70;99.90;;;;;;5037299;28;20045;-59
2023/07/15 04:03:38;;;;;;;22.65;2.80;;;16.60;99.90;;;;;;5038556;28;20132;-60
2023/07/15 04:06:06;;;;;;;18.85;3.90;;;16.60;99.90;;;;;;5039424;28;20038;-59
2023/07/15 04:08:34;;;;;;;23.13;3.33;;;16.60;99.90;;;;;;5045064;28;20049;-59
2023/07/15 04:11:01;;;;;;;10.35;2.30;;;16.60;99.90;;;;;;5039289;28;20136;-60
2023/07/15 04:13:28;;;;;;;15.40;4.47;;;16.50;99.90;;;;;;5038705;28;20054;-60
2023/07/15 04:15:55;;;;;;;14.98;2.58;;;16.50;99.90;;;;;;5033685;28;20103;-60
2023/07/15 04:18:22;;;;;;;22.02;2.95;;;16.50;99.90;;;;;;5035646;28;20047;-58
2023/07/15 04:20:49;;;;;;;13.98;3.17;;;16.50;99.90;;;;;;5042543;28;20055;-60
2023/07/15 04:23:16;;;;;;;12.75;2.10;;;16.50;99.90;;;;;;5039555;28;20045;-60
2023/07/15 04:25:45;;;;;;;17.52;2.38;;;16.50;99.90;;;;;;5030277;28;20428;-60
2023/07/15 04:28:13;;;;;;;9.38;2.80;;;16.50;99.90;;;;;;5034736;28;20053;-59
2023/07/15 04:30:40;;;;;;;14.95;2.33;;;16.50;99.90;;;;;;5027793;28;20054;-59
2023/07/15 04:33:07;;;;;;;11.77;3.20;;;16.60;99.90;;;;;;5039715;28;20041;-59
2023/07/15 04:35:33;;;;;;;14.55;3.15;;;16.50;99.90;;;;;;5031124;28;20096;-59
2023/07/15 04:38:00;;;;;;;22.00;2.85;;;16.60;99.90;;;;;;5013415;28;20381;-59
2023/07/15 04:40:27;;;;;;;9.75;2.55;;;16.60;99.90;;;;;;5032516;28;20060;-59
2023/07/15 04:42:54;;;;;;;14.30;3.05;;;16.60;99.90;;;;;;5035865;28;20052;-59
2023/07/15 04:45:21;;;;;;;11.68;2.83;;;16.70;99.90;;;;;;5044525;28;20049;-61
2023/07/15 04:47:47;;;;;;;13.05;2.97;;;16.60;99.90;;;;;;5022919;28;20037;-60
2023/07/15 04:50:14;;;;;;;11.07;2.30;;;16.70;99.90;;;;;;5039415;28;20049;-59
2023/07/15 04:52:41;;;;;;;13.85;2.58;;;16.70;99.90;;;;;;5023147;28;20041;-60
2023/07/15 04:55:09;;;;;;;12.93;3.20;;;16.70;99.90;;;;;;5040052;28;20054;-60
2023/07/15 04:57:35;;;;;;;11.75;2.63;;;16.70;99.90;;;;;;5042313;28;20053;-58
2023/07/15 05:00:04;;;;;;;13.50;2.88;;;16.70;99.90;;;;;;5042738;28;20072;-61
2023/07/15 05:02:33;;;;;;;13.55;2.38;;;16.70;99.90;;;;;;5039731;28;20044;-61
2023/07/15 05:05:00;;;;;;;16.52;3.00;;;16.70;99.90;;;;;;5042117;28;20050;-59
2023/07/15 05:07:26;;;;;;;13.73;2.30;;;16.70;99.90;;;;;;5035751;28;20046;-60
2023/07/15 05:09:56;;;;;;;15.85;3.88;;;16.80;99.90;;;;;;5037754;28;20049;-60
2023/07/15 05:12:24;;;;;;;10.27;2.53;;;16.90;99.90;;;;;;5046469;28;20049;-59
2023/07/15 05:14:51;;;;;;;18.17;2.53;;;16.90;99.90;;;;;;5042879;28;20411;-59
2023/07/15 05:17:18;;;;;;;14.05;2.45;;;16.90;99.90;;;;;;5033101;28;20056;-58
2023/07/15 05:19:45;;;;;;;14.73;2.75;;;17.00;99.90;;;;;;5037569;28;20420;-59
2023/07/15 05:22:12;;;;;;;14.95;2.40;;;17.00;99.90;;;;;;5046162;28;20053;-59
2023/07/15 05:24:39;;;;;;;8.98;1.98;;;17.00;99.90;;;;;;5042565;28;20056;-60
2023/07/15 05:27:05;;;;;;;12.25;2.45;;;17.00;99.90;;;;;;5031056;28;20475;-59
2023/07/15 05:29:32;;;;;;;11.75;2.03;;;17.00;99.90;;;;;;5040644;28;20064;-59
2023/07/15 05:31:59;;;;;;;10.82;2.35;;;17.00;99.90;;;;;;5044822;28;20037;-60
2023/07/15 05:34:26;;;;;;;13.20;2.65;;;17.00;99.90;;;;;;5044607;28;20084;-59
2023/07/15 05:36:53;;;;;;;10.43;2.97;;;17.10;99.90;;;;;;5042266;28;20049;-60
2023/07/15 05:39:20;;;;;;;11.32;2.67;;;17.10;99.90;;;;;;5039234;28;20049;-60
2023/07/15 05:41:49;;;;;;;10.80;2.45;;;17.10;99.90;;;;;;5039773;28;20483;-58
2023/07/15 05:44:16;;;;;;;7.30;2.17;;;17.10;99.90;;;;;;5038494;28;20045;-59
2023/07/15 05:46:42;;;;;;;12.98;2.33;;;17.20;99.90;;;;;;5038910;28;20045;-58
2023/07/15 05:49:09;;;;;;;11.80;2.30;;;17.20;99.90;;;;;;5042584;28;20076;-59
2023/07/15 05:51:36;;;;;;;12.02;3.05;;;17.20;99.90;;;;;;5040909;28;20053;-58
2023/07/15 05:54:03;;;;;;;8.43;2.08;;;17.20;99.90;;;;;;5035226;28;20045;-59
2023/07/15 05:56:30;;;;;;;15.45;2.58;;;17.20;99.90;;;;;;5041290;28;20049;-58
2023/07/15 05:58:57;;;;;;;12.77;2.63;;;17.20;99.90;;;;;;5032943;28;20127;-59
2023/07/15 06:01:24;;;;;;;8.32;2.20;;;17.20;99.90;;;;;;5045025;28;20049;-59
2023/07/15 06:03:50;;;;;;;15.38;2.17;;;17.20;99.90;;;;;;5046640;28;20076;-60
2023/07/15 06:06:17;;;;;;;14.70;2.22;;;17.10;99.90;;;;;;5041682;28;20076;-60
2023/07/15 06:08:45;;;;;;;12.20;2.63;;;17.00;99.90;;;;;;4336711;28;10000657;-60
2023/07/15 06:11:12;;;;;;;9.68;2.03;;;16.90;99.90;;;;;;5039299;28;20134;-60
2023/07/15 06:13:39;;;;;;;9.88;2.00;;;16.80;99.90;;;;;;5013604;28;20503;-60
2023/07/15 06:16:06;;;;;;;13.02;1.98;;;16.80;99.90;;;;;;5035331;28;20084;-60
2023/07/15 06:18:33;;;;;;;15.07;2.50;;;16.80;99.90;;;;;;5040452;28;20515;-60
2023/07/15 06:21:00;;;;;;;10.23;3.25;;;16.80;99.90;;;;;;5035544;28;20037;-60
2023/07/15 06:23:27;;;;;;;9.95;2.97;;;16.80;99.90;;;;;;5034941;28;20056;-60
2023/07/15 06:25:55;;;;;;;12.88;2.63;;;16.80;99.90;;;;;;5034154;28;20045;-60
2023/07/15 06:28:22;;;;;;;10.05;2.60;;;16.80;99.90;;;;;;5039167;28;20056;-60
2023/07/15 06:30:50;;;;;;;8.07;2.42;;;16.90;99.90;;;;;;5039481;28;20044;-60
2023/07/15 06:33:17;;;;;;;9.52;2.03;;;16.90;99.90;;;;;;5037403;28;20084;-62
2023/07/15 06:35:43;;;;;;;6.75;2.10;;;17.00;99.90;;;;;;5032463;28;20129;-60
2023/07/15 06:38:10;;;;;;;9.68;3.20;;;17.00;99.90;;;;;;5028745;28;20048;-60
2023/07/15 06:40:38;;;;;;;5.03;1.98;;;16.90;99.90;;;;;;5039798;28;20087;-59
2023/07/15 06:43:05;;;;;;;15.98;3.60;;;16.90;99.90;;;;;;5038581;28;20468;-61
2023/07/15 06:45:35;;;;;;;9.85;2.72;;;16.90;99.90;;;;;;5029334;28;20516;-60
2023/07/15 06:48:03;;;;;;;9.95;3.15;;;17.00;99.90;;;;;;5033069;28;20065;-60
2023/07/15 06:50:30;;;;;;;14.10;2.55;;;17.00;99.90;;;;;;5042209;28;20049;-60
2023/07/15 06:52:57;;;;;;;8.88;2.95;;;17.10;99.90;;;;;;5037776;28;20044;-60
2023/07/15 06:55:24;;;;;;;10.50;2.75;;;17.10;99.90;;;;;;5028033;28;20049;-60
2023/07/15 06:57:51;;;;;;;13.90;3.08;;;17.20;99.90;;;;;;5032671;28;20690;-60
2023/07/15 07:00:17;;;;;;;12.75;4.35;;;17.30;99.90;;;;;;5041555;28;20064;-59
2023/07/15 07:02:45;;;;;;;10.88;2.63;;;17.30;99.90;;;;;;5034045;28;20049;-61
2023/07/15 07:05:12;;;;;;;8.85;1.95;;;17.50;99.90;;;;;;5039493;28;20122;-60
2023/07/15 07:07:41;;;;;;;10.55;2.30;;;17.50;99.90;;;;;;5035553;28;20161;-60
2023/07/15 07:10:08;;;;;;;11.70;2.50;;;17.60;99.90;;;;;;5042123;28;20079;-60
2023/07/15 07:12:35;;;;;;;14.48;2.85;;;17.70;99.90;;;;;;5040929;28;20068;-59
2023/07/15 07:15:03;;;;;;;11.05;2.83;;;17.80;99.90;;;;;;5036470;28;20106;-60
2023/07/15 07:17:29;;;;;;;7.93;2.30;;;17.80;99.90;;;;;;5034464;28;20045;-60
2023/07/15 07:19:56;;;;;;;8.85;2.05;;;17.90;99.90;;;;;;5034084;28;20487;-60
2023/07/15 07:22:23;;;;;;;16.17;3.28;;;17.90;99.90;;;;;;5018931;28;20528;-60
2023/07/15 07:24:52;;;;;;;9.77;2.60;;;17.90;99.90;;;;;;5036409;28;20436;-60
2023/07/15 07:27:19;;;;;;;11.90;2.47;;;17.90;99.90;;;;;;5031119;28;20053;-60
2023/07/15 07:29:46;;;;;;;19.90;2.88;;;17.90;99.90;;;;;;5033130;28;20041;-60
2023/07/15 07:32:13;;;;;;;11.80;2.20;;;17.90;99.90;;;;;;5022380;28;20132;-60
2023/07/15 07:34:39;;;;;;;14.30;2.60;;;18.00;99.90;;;;;;5037408;28;20179;-60
2023/07/15 07:37:06;;;;;;;8.10;1.95;;;18.00;99.90;;;;;;5027717;28;20041;-60
2023/07/15 07:39:33;;;;;;;14.40;2.35;;;17.90;99.90;;;;;;5028792;28;20119;-60
2023/07/15 07:42:00;;;;;;;8.38;2.20;;;17.90;99.90;;;;;;5041741;28;20041;-60
2023/07/15 07:44:27;;;;;;;8.57;2.05;;;18.00;99.90;;;;;;5031557;28;20057;-59
2023/07/15 07:46:54;;;;;;;9.15;2.25;;;18.00;99.90;;;;;;5036586;28;20050;-60
2023/07/15 07:49:20;;;;;;;10.30;1.80;;;18.10;99.90;;;;;;5036349;28;20057;-60
2023/07/15 07:51:47;;;;;;;10.93;2.28;;;18.20;99.90;;;;;;5031862;28;20052;-60
2023/07/15 07:54:14;;;;;;;16.77;3.47;;;18.20;99.90;;;;;;5041677;28;20045;-60
2023/07/15 07:56:41;;;;;;;27.52;4.03;;;18.30;99.90;;;;;;5031241;28;20086;-61
2023/07/15 07:59:08;;;;;;;13.32;2.60;;;18.40;99.90;;;;;;5039020;28;20145;-60
2023/07/15 08:01:35;;;;;;;9.18;2.08;;;18.50;99.90;;;;;;5033224;28;20517;-61
2023/07/15 08:04:02;;;;;;;10.32;2.90;;;18.70;99.90;;;;;;5029216;28;20044;-60
2023/07/15 08:06:29;;;;;;;7.70;2.45;;;18.80;99.90;;;;;;5033181;28;20053;-59
2023/07/15 08:08:56;;;;;;;9.95;2.40;;;18.80;99.90;;;;;;5037294;28;20067;-60
2023/07/15 08:11:23;;;;;;;9.15;1.90;;;18.90;99.90;;;;;;5033383;28;20052;-60
2023/07/15 08:13:50;;;;;;;10.60;2.55;;;19.00;99.90;;;;;;5037298;28;20051;-61
2023/07/15 08:16:34;;;;;;;9.65;2.00;;;18.80;99.90;;;;;;5036404;28;20057;-60
2023/07/15 08:19:01;;;;;;;;;;;18.80;99.90;;;;;;5033633;28;20048;-60
2023/07/15 08:21:28;;;;;;;16.63;3.20;;;18.60;99.90;;;;;;5038592;28;19927;-60
2023/07/15 08:23:55;;;;;;;14.32;3.50;;;18.70;99.90;;;;;;5033111;28;20053;-62
2023/07/15 08:26:22;;;;;;;13.07;2.95;;;18.70;99.90;;;;;;5035833;28;20088;-59
2023/07/15 08:28:49;;;;;;;13.15;2.80;;;18.70;99.90;;;;;;5044915;28;20037;-60
2023/07/15 08:31:16;;;;;;;18.60;3.05;;;18.90;99.90;;;;;;5040362;28;20470;-59
2023/07/15 08:33:43;;;;;;;15.75;3.00;;;19.00;99.90;;;;;;5031141;28;20049;-59
2023/07/15 08:36:10;;;;;;;13.73;2.63;;;19.10;99.90;;;;;;5027655;28;20045;-60
2023/07/15 08:38:37;;;;;;;12.43;2.88;;;19.10;99.90;;;;;;5031118;28;20049;-59
2023/07/15 08:41:04;;;;;;;8.75;1.98;;;19.00;99.90;;;;;;5002360;28;20060;-61
2023/07/15 08:43:31;;;;;;;12.88;3.20;;;19.00;99.90;;;;;;5041992;28;20591;-60
2023/07/15 08:46:09;;;;;;;10.07;2.47;;;19.00;99.90;;;;;;5038973;28;20073;-60
2023/07/15 08:48:36;;;;;;;12.07;2.15;;;19.10;99.90;;;;;;5034262;28;20061;-61
2023/07/15 08:51:04;;;;;;;12.63;2.63;;;19.10;99.90;;;;;;5018569;28;20041;-60
2023/07/15 08:53:31;;;;;;;13.27;2.40;;;19.20;99.90;;;;;;5022942;28;20416;-60
2023/07/15 08:55:58;;;;;;;13.13;2.92;;;19.10;99.90;;;;;;5037282;28;20077;-59
2023/07/15 08:58:25;;;;;;;7.80;2.03;;;19.10;99.90;;;;;;5037085;28;20516;-59
2023/07/15 09:00:52;;;;;;;11.27;2.83;;;19.00;99.90;;;;;;5037024;28;20416;-60
2023/07/15 09:03:19;;;;;;;7.85;1.92;;;19.10;99.90;;;;;;5038842;28;20045;-59
2023/07/15 09:05:48;;;;;;;12.82;2.33;;;19.10;99.90;;;;;;5034521;28;20049;-60
2023/07/15 09:08:15;;;;;;;8.32;2.08;;;19.30;99.90;;;;;;5036634;28;20045;-60
2023/07/15 09:10:56;;;;;;;18.55;3.53;;;19.40;99.90;;;;;;5040872;28;20077;-60
2023/07/15 09:13:29;;;;;;;9.27;1.90;;;19.40;99.90;;;;;;5038764;28;20092;-60
2023/07/15 09:15:57;;;;;;;9.13;1.92;;;19.60;99.90;;;;;;5022665;28;20478;-60
2023/07/15 09:18:24;;;;;;;12.18;2.08;;;19.60;99.90;;;;;;5035623;28;20550;-60
2023/07/15 09:20:51;;;;;;;5.70;1.83;;;19.70;99.90;;;;;;5042016;28;20044;-60
2023/07/15 09:23:18;;;;;;;12.35;2.50;;;19.80;99.90;;;;;;5042729;28;20057;-59
2023/07/15 09:25:52;;;;;;;20.40;2.55;;;19.70;99.90;;;;;;5030127;28;20099;-59
2023/07/15 09:28:20;;;;;;;10.13;1.65;;;19.80;99.90;;;;;;5039946;28;20064;-61
2023/07/15 09:30:47;;;;;;;10.23;2.30;;;20.00;99.90;;;;;;5028579;28;20044;-60
2023/07/15 09:33:28;;;;;;;11.98;3.30;;;20.20;99.90;;;;;;5034467;28;20057;-60
2023/07/15 09:35:54;;;;;;;16.25;3.38;;;20.20;99.90;;;;;;5029685;28;20144;-59
2023/07/15 09:38:22;;;;;;;12.18;2.47;;;20.10;99.90;;;;;;5028083;28;20057;-60
2023/07/15 09:40:49;;;;;;;7.55;2.28;;;20.40;99.90;;;;;;5030202;28;20095;-60
2023/07/15 09:43:16;;;;;;;7.03;1.88;;;20.60;99.90;;;;;;5016858;28;20060;-60
2023/07/15 09:45:44;;;;;;;13.38;2.47;;;20.80;99.90;;;;;;5042517;28;20061;-59
2023/07/15 09:48:13;;;;;;;9.70;2.50;;;20.90;99.90;;;;;;5035924;28;20136;-59
2023/07/15 09:50:41;;;;;;;14.00;4.75;;;21.00;99.90;;;;;;5022987;28;20575;-60
2023/07/15 09:53:09;;;;;;;13.15;2.60;;;20.90;99.90;;;;;;5039463;28;20080;-59
2023/07/15 09:55:36;;;;;;;8.77;2.28;;;20.80;99.90;;;;;;5033734;28;20060;-60
2023/07/15 09:58:22;;;;;;;16.00;3.22;;;20.50;99.90;;;;;;5036659;28;20064;-60
2023/07/15 10:01:00;;;;;;;8.13;2.45;;;20.10;99.90;;;;;;5039675;28;20049;-62
2023/07/15 10:03:29;;;;;;;15.93;1.95;;;19.90;99.90;;;;;;5009720;28;20051;-60
2023/07/15 10:05:56;;;;;;;9.95;3.15;;;19.60;99.90;;;;;;5022152;28;20075;-59
2023/07/15 10:08:23;;;;;;;7.78;2.70;;;19.50;99.90;;;;;;5038547;28;20048;-59
2023/07/15 10:10:50;;;;;;;9.57;2.15;;;19.70;99.90;;;;;;5028818;28;20049;-59
2023/07/15 10:13:17;;;;;;;9.48;2.15;;;19.90;99.90;;;;;;5036458;28;20051;-59
2023/07/15 10:15:44;;;;;;;14.30;2.42;;;19.90;99.90;;;;;;5037855;28;20076;-60
2023/07/15 10:18:18;;;;;;;13.38;2.45;;;19.90;99.90;;;;;;5022541;28;20558;-60
2023/07/15 10:20:55;;;;;;;9.07;1.73;;;19.60;99.90;;;;;;5035478;28;20060;-60
2023/07/15 10:23:26;;;;;;;10.75;2.30;;;19.20;99.90;;;;;;5040940;28;20128;-60
2023/07/15 10:26:01;;;;;;;12.65;2.95;;;19.10;99.90;;;;;;5044080;28;20055;-59
2023/07/15 10:28:36;;;;;;;10.73;2.70;;;19.10;99.90;;;;;;5026675;28;20041;-57
2023/07/15 10:31:15;;;;;;;13.70;2.50;;;19.00;99.90;;;;;;5038463;28;20510;-58
2023/07/15 10:33:53;;;;;;;22.60;3.20;;;19.00;99.90;;;;;;5019866;28;20055;-59
2023/07/15 10:36:44;;;;;;;10.65;2.70;;;18.80;99.90;;;;;;5034422;28;20533;-58
2023/07/15 10:39:18;;;;;;;11.32;2.72;;;18.60;99.90;;;;;;5038233;28;20285;-57
2023/07/15 10:41:45;;;;;;;;;;;18.50;99.90;;;;;;5036065;28;20765;-57
2023/07/15 10:44:16;;;;;;;13.57;2.35;;;18.50;99.90;;;;;;5039754;28;19951;-58
2023/07/15 10:47:07;;;;;;;11.88;2.63;;;18.50;99.90;;;;;;5038054;28;20095;-55
2023/07/15 10:49:34;;;;;;;15.18;3.00;;;18.50;99.90;;;;;;5023813;28;20056;-58
2023/07/15 10:52:05;;;;;;;12.10;2.53;;;18.70;99.90;;;;;;5041886;28;20045;-57
2023/07/15 10:54:35;;;;;;;14.57;2.80;;;19.00;99.90;;;;;;5036341;28;20385;-57
2023/07/15 10:57:14;;;;;;;17.33;2.80;;;19.10;99.90;;;;;;5019096;28;20225;-58
2023/07/15 10:59:42;;;;;;;17.10;2.95;;;19.10;99.90;;;;;;5033424;28;20042;-59
2023/07/15 11:02:10;;;;;;;18.63;4.13;;;19.20;99.90;;;;;;5034508;28;20053;-58
2023/07/15 11:04:38;;;;;;;16.88;3.42;;;19.30;99.90;;;;;;5037850;28;20041;-59
2023/07/15 11:07:10;;;;;;;14.98;2.83;;;19.50;99.90;;;;;;5036889;28;20083;-57
2023/07/15 11:09:38;;;;;;;15.02;2.60;;;19.70;99.90;;;;;;5031493;28;20428;-58
2023/07/15 11:12:10;;;;;;;10.73;2.40;;;19.90;99.90;;;;;;5019056;28;20140;-57
2023/07/15 11:14:42;;;;;;;11.32;2.33;;;20.10;99.90;;;;;;5030072;28;20049;-58
2023/07/15 11:17:09;;;;;;;12.48;2.67;;;20.30;99.90;;;;;;5032589;28;20160;-59
2023/07/15 11:19:37;;;;;;;15.20;2.83;;;20.40;99.90;;;;;;5037326;28;20221;-59
2023/07/15 11:22:09;;;;;;;10.15;2.53;;;20.40;99.90;;;;;;5033710;28;20673;-59
2023/07/15 11:24:39;;;;;;;10.93;2.05;;;20.30;99.90;;;;;;5035640;28;20045;-58
2023/07/15 11:27:06;;;;;;;13.50;2.15;;;20.20;99.90;;;;;;5015886;28;20044;-59
2023/07/15 11:29:33;;;;;;;14.50;2.67;;;20.10;99.90;;;;;;5009949;28;20055;-58
2023/07/15 11:32:01;;;;;;;16.42;3.45;;;19.80;99.90;;;;;;5032014;28;20074;-59
2023/07/15 11:34:28;;;;;;;13.00;2.80;;;19.70;99.90;;;;;;5040871;28;20069;-59
2023/07/15 11:36:55;;;;;;;9.63;2.10;;;19.60;99.90;;;;;;5036654;28;20049;-59
2023/07/15 11:39:22;;;;;;;12.45;3.22;;;19.60;99.90;;;;;;5031000;28;20041;-59
2023/07/15 11:41:49;;;;;;;18.20;3.10;;;19.60;99.90;;;;;;5033287;28;20528;-57
2023/07/15 11:44:20;;;;;;;9.52;2.47;;;19.80;99.90;;;;;;5038382;28;20118;-59
2023/07/15 11:46:47;;;;;;;18.20;3.08;;;20.10;99.90;;;;;;5023448;28;20052;-59
2023/07/15 11:49:19;;;;;;;13.75;2.88;;;20.30;99.90;;;;;;5040112;28;20716;-58
2023/07/15 11:51:46;;;;;;;13.90;2.47;;;20.60;99.90;;;;;;5033530;28;20476;-59
2023/07/15 11:54:15;;;;;;;14.70;2.67;;;20.70;99.90;;;;;;5031977;28;20139;-58
2023/07/15 11:56:43;;;;;;;11.88;3.15;;;20.80;99.90;;;;;;5041615;28;20053;-59
2023/07/15 11:59:11;;;;;;;8.93;2.30;;;20.90;99.90;;;;;;5042610;28;20475;-57
2023/07/15 12:01:39;;;;;;;14.82;3.88;;;21.10;99.90;;;;;;5038133;28;20049;-58
2023/07/15 12:04:15;;;;;;;8.68;2.78;;;21.30;99.90;;;;;;5045036;28;20076;-59
2023/07/15 12:06:49;;;;;;;12.32;2.92;;;21.30;99.90;;;;;;4954856;28;20552;-58
2023/07/15 12:09:16;;;;;;;13.85;3.72;;;21.30;99.90;;;;;;4954122;28;20050;-58
2023/07/15 12:11:43;;;;;;;10.50;3.22;;;21.30;99.90;;;;;;4989729;28;20054;-59
2023/07/15 12:14:10;;;;;;;10.85;2.53;;;21.20;99.90;;;;;;5007538;28;20050;-57
2023/07/15 12:16:38;;;;;;;11.57;3.13;;;21.10;99.90;;;;;;5010894;28;20774;-58
2023/07/15 12:19:06;;;;;;;12.70;3.22;;;21.20;99.90;;;;;;5011175;28;20049;-60
2023/07/15 12:21:38;;;;;;;12.60;2.95;;;21.30;99.90;;;;;;5010925;28;20053;-61
2023/07/15 12:24:05;;;;;;;11.07;2.83;;;21.30;99.90;;;;;;4999638;28;20050;-57
2023/07/15 12:26:32;;;;;;;9.00;2.28;;;21.30;99.90;;;;;;5010795;28;20053;-58
2023/07/15 12:28:59;;;;;;;8.35;2.53;;;21.20;99.90;;;;;;4991596;28;20045;-56
2023/07/15 12:31:25;;;;;;;8.95;2.33;;;21.10;99.90;;;;;;5010764;28;20065;-58
2023/07/15 12:33:52;;;;;;;14.13;2.22;;;21.30;99.90;;;;;;5011122;28;20040;-59
2023/07/15 12:36:19;;;;;;;15.80;2.60;;;21.30;99.90;;;;;;5008543;28;20050;-60
2023/07/15 12:38:46;;;;;;;7.70;2.00;;;21.30;99.90;;;;;;4973192;28;20099;-59
2023/07/15 12:41:13;;;;;;;10.35;2.30;;;21.30;99.90;;;;;;4987796;28;20058;-58
2023/07/15 12:43:40;;;;;;;15.13;2.63;;;21.40;99.90;;;;;;4996074;28;20076;-59